Ext Bda Roosevelt, Puerto Rico
Current Conditions -  °F | °C
As of 12:56 AM on Saturday 29 Nov 2014 (Local Time) from TJSJ Reporting Station
Clear Clear  
Wind Chill: 76°   Ceiling: Unl
Heat Index: 76°   Visibility: 10mi
Dew Point: 70°   Wind: 0mph
Humidity: 82%   Direction: NA
Pressure: 29.95"   Gusts: NA
Location:  18.1909°N, 65.9618°W
Report Text: TJSJ 290456Z 00000KT 10SM CLR 24/21 A2995 RMK AO2 SLP140 T02440211
Loading
Personal Weather Stations






























Interactive Weather Map New forecast layout! Learn more

10-Day Weather Forecast

Advertisements
Track Severe Weather on mobile